sensor_id;sensor_type;location;lat;lon;timestamp;P1;durP1;ratioP1;P2;durP2;ratioP2
3587;SDS011;1808;53.596;9.972;2023-04-07T00:01:36;19.77;;;10.32;;
3587;SDS011;1808;53.596;9.972;2023-04-07T00:04:02;21.13;;;10.43;;
3587;SDS011;1808;53.596;9.972;2023-04-07T00:06:28;19.88;;;10.25;;
3587;SDS011;1808;53.596;9.972;2023-04-07T00:08:55;16.30;;;10.30;;
3587;SDS011;1808;53.596;9.972;2023-04-07T00:11:21;18.70;;;10.32;;
3587;SDS011;1808;53.596;9.972;2023-04-07T00:13:48;19.27;;;12.40;;
3587;SDS011;1808;53.596;9.972;2023-04-07T00:16:15;21.38;;;10.52;;
3587;SDS011;1808;53.596;9.972;2023-04-07T00:18:42;18.23;;;11.05;;
3587;SDS011;1808;53.596;9.972;2023-04-07T00:21:08;16.40;;;10.80;;
3587;SDS011;1808;53.596;9.972;2023-04-07T00:23:34;18.77;;;10.35;;
3587;SDS011;1808;53.596;9.972;2023-04-07T00:26:01;17.48;;;10.38;;
3587;SDS011;1808;53.596;9.972;2023-04-07T00:28:27;19.48;;;11.43;;
3587;SDS011;1808;53.596;9.972;2023-04-07T00:30:53;17.85;;;11.25;;
3587;SDS011;1808;53.596;9.972;2023-04-07T00:33:21;14.77;;;10.35;;
3587;SDS011;1808;53.596;9.972;2023-04-07T00:35:47;21.38;;;12.30;;
3587;SDS011;1808;53.596;9.972;2023-04-07T00:38:13;18.70;;;11.10;;
3587;SDS011;1808;53.596;9.972;2023-04-07T00:40:39;19.58;;;12.27;;
3587;SDS011;1808;53.596;9.972;2023-04-07T00:43:06;18.10;;;11.70;;
3587;SDS011;1808;53.596;9.972;2023-04-07T00:45:32;18.25;;;11.15;;
3587;SDS011;1808;53.596;9.972;2023-04-07T00:47:58;17.10;;;10.65;;
3587;SDS011;1808;53.596;9.972;2023-04-07T00:50:26;17.08;;;10.00;;
3587;SDS011;1808;53.596;9.972;2023-04-07T00:52:52;17.58;;;12.05;;
3587;SDS011;1808;53.596;9.972;2023-04-07T00:55:20;20.80;;;11.07;;
3587;SDS011;1808;53.596;9.972;2023-04-07T00:57:47;18.13;;;11.07;;
3587;SDS011;1808;53.596;9.972;2023-04-07T01:00:13;20.20;;;11.40;;
3587;SDS011;1808;53.596;9.972;2023-04-07T01:02:40;17.80;;;11.27;;
3587;SDS011;1808;53.596;9.972;2023-04-07T01:05:09;15.07;;;10.48;;
3587;SDS011;1808;53.596;9.972;2023-04-07T01:07:42;19.25;;;10.93;;
3587;SDS011;1808;53.596;9.972;2023-04-07T01:10:11;16.35;;;10.52;;
3587;SDS011;1808;53.596;9.972;2023-04-07T01:12:38;17.45;;;10.85;;
3587;SDS011;1808;53.596;9.972;2023-04-07T01:15:06;17.88;;;11.52;;
3587;SDS011;1808;53.596;9.972;2023-04-07T01:17:34;18.60;;;12.18;;
3587;SDS011;1808;53.596;9.972;2023-04-07T01:20:02;21.20;;;11.27;;
3587;SDS011;1808;53.596;9.972;2023-04-07T01:22:31;17.27;;;11.18;;
3587;SDS011;1808;53.596;9.972;2023-04-07T01:25:05;17.80;;;10.77;;
3587;SDS011;1808;53.596;9.972;2023-04-07T01:27:35;19.58;;;11.82;;
3587;SDS011;1808;53.596;9.972;2023-04-07T01:30:03;18.40;;;10.63;;
3587;SDS011;1808;53.596;9.972;2023-04-07T01:32:32;19.02;;;11.50;;
3587;SDS011;1808;53.596;9.972;2023-04-07T01:35:00;16.13;;;10.18;;
3587;SDS011;1808;53.596;9.972;2023-04-07T01:37:27;19.80;;;11.10;;
3587;SDS011;1808;53.596;9.972;2023-04-07T01:39:53;17.60;;;11.07;;
3587;SDS011;1808;53.596;9.972;2023-04-07T01:42:20;17.00;;;10.73;;
3587;SDS011;1808;53.596;9.972;2023-04-07T01:44:46;16.42;;;10.38;;
3587;SDS011;1808;53.596;9.972;2023-04-07T01:47:14;16.67;;;10.57;;
3587;SDS011;1808;53.596;9.972;2023-04-07T01:49:41;16.00;;;10.98;;
3587;SDS011;1808;53.596;9.972;2023-04-07T01:52:08;16.77;;;10.82;;
3587;SDS011;1808;53.596;9.972;2023-04-07T01:54:35;16.65;;;10.40;;
3587;SDS011;1808;53.596;9.972;2023-04-07T01:57:01;15.68;;;10.80;;
3587;SDS011;1808;53.596;9.972;2023-04-07T01:59:28;15.48;;;10.65;;
3587;SDS011;1808;53.596;9.972;2023-04-07T02:01:54;14.98;;;10.48;;
3587;SDS011;1808;53.596;9.972;2023-04-07T02:04:28;16.63;;;9.88;;
3587;SDS011;1808;53.596;9.972;2023-04-07T02:06:58;20.67;;;11.50;;
3587;SDS011;1808;53.596;9.972;2023-04-07T02:09:24;17.45;;;10.00;;
3587;SDS011;1808;53.596;9.972;2023-04-07T02:11:52;17.65;;;10.38;;
3587;SDS011;1808;53.596;9.972;2023-04-07T02:14:20;15.38;;;9.77;;
3587;SDS011;1808;53.596;9.972;2023-04-07T02:16:48;16.10;;;9.82;;
3587;SDS011;1808;53.596;9.972;2023-04-07T02:19:15;17.92;;;9.68;;
3587;SDS011;1808;53.596;9.972;2023-04-07T02:21:43;15.05;;;10.07;;
3587;SDS011;1808;53.596;9.972;2023-04-07T02:24:10;16.58;;;9.80;;
3587;SDS011;1808;53.596;9.972;2023-04-07T02:26:37;14.52;;;9.73;;
3587;SDS011;1808;53.596;9.972;2023-04-07T02:29:03;16.45;;;10.05;;
3587;SDS011;1808;53.596;9.972;2023-04-07T02:31:29;14.00;;;9.10;;
3587;SDS011;1808;53.596;9.972;2023-04-07T02:33:56;14.85;;;9.68;;
3587;SDS011;1808;53.596;9.972;2023-04-07T02:36:22;13.05;;;8.45;;
3587;SDS011;1808;53.596;9.972;2023-04-07T02:38:50;15.75;;;9.93;;
3587;SDS011;1808;53.596;9.972;2023-04-07T02:41:16;12.85;;;9.23;;
3587;SDS011;1808;53.596;9.972;2023-04-07T02:43:42;13.35;;;9.50;;
3587;SDS011;1808;53.596;9.972;2023-04-07T02:46:08;16.30;;;9.93;;
3587;SDS011;1808;53.596;9.972;2023-04-07T02:48:35;14.25;;;9.70;;
3587;SDS011;1808;53.596;9.972;2023-04-07T02:51:01;14.70;;;9.05;;
3587;SDS011;1808;53.596;9.972;2023-04-07T02:53:27;15.73;;;9.80;;
3587;SDS011;1808;53.596;9.972;2023-04-07T02:55:54;13.60;;;8.80;;
3587;SDS011;1808;53.596;9.972;2023-04-07T02:58:21;12.27;;;8.15;;
3587;SDS011;1808;53.596;9.972;2023-04-07T03:00:47;15.32;;;8.85;;
3587;SDS011;1808;53.596;9.972;2023-04-07T03:03:13;14.73;;;8.35;;
3587;SDS011;1808;53.596;9.972;2023-04-07T03:05:39;21.73;;;9.00;;
3587;SDS011;1808;53.596;9.972;2023-04-07T03:08:06;12.82;;;7.97;;
3587;SDS011;1808;53.596;9.972;2023-04-07T03:10:32;14.00;;;8.07;;
3587;SDS011;1808;53.596;9.972;2023-04-07T03:12:59;16.77;;;9.32;;
3587;SDS011;1808;53.596;9.972;2023-04-07T03:15:25;13.57;;;9.15;;
3587;SDS011;1808;53.596;9.972;2023-04-07T03:17:52;13.30;;;8.82;;
3587;SDS011;1808;53.596;9.972;2023-04-07T03:20:18;11.40;;;7.88;;
3587;SDS011;1808;53.596;9.972;2023-04-07T03:22:44;11.23;;;8.10;;
3587;SDS011;1808;53.596;9.972;2023-04-07T03:25:11;12.32;;;8.18;;
3587;SDS011;1808;53.596;9.972;2023-04-07T03:27:37;11.48;;;8.27;;
3587;SDS011;1808;53.596;9.972;2023-04-07T03:30:05;11.68;;;8.40;;
3587;SDS011;1808;53.596;9.972;2023-04-07T03:32:32;12.52;;;8.07;;
3587;SDS011;1808;53.596;9.972;2023-04-07T03:34:58;12.77;;;7.78;;
3587;SDS011;1808;53.596;9.972;2023-04-07T03:37:24;12.98;;;8.63;;
3587;SDS011;1808;53.596;9.972;2023-04-07T03:39:51;14.50;;;8.20;;
3587;SDS011;1808;53.596;9.972;2023-04-07T03:42:17;14.38;;;7.70;;
3587;SDS011;1808;53.596;9.972;2023-04-07T03:44:43;13.32;;;8.05;;
3587;SDS011;1808;53.596;9.972;2023-04-07T03:47:11;13.13;;;7.97;;
3587;SDS011;1808;53.596;9.972;2023-04-07T03:49:37;13.90;;;8.30;;
3587;SDS011;1808;53.596;9.972;2023-04-07T03:52:03;13.10;;;8.48;;
3587;SDS011;1808;53.596;9.972;2023-04-07T03:54:30;13.75;;;8.30;;
3587;SDS011;1808;53.596;9.972;2023-04-07T03:56:56;12.73;;;8.07;;
3587;SDS011;1808;53.596;9.972;2023-04-07T03:59:22;11.43;;;7.35;;
3587;SDS011;1808;53.596;9.972;2023-04-07T04:01:49;13.63;;;7.80;;
3587;SDS011;1808;53.596;9.972;2023-04-07T04:04:16;11.73;;;7.60;;
3587;SDS011;1808;53.596;9.972;2023-04-07T04:06:42;13.13;;;8.60;;
3587;SDS011;1808;53.596;9.972;2023-04-07T04:09:09;13.45;;;7.90;;
3587;SDS011;1808;53.596;9.972;2023-04-07T04:11:35;13.90;;;7.85;;
3587;SDS011;1808;53.596;9.972;2023-04-07T04:14:01;15.50;;;9.00;;
3587;SDS011;1808;53.596;9.972;2023-04-07T04:16:27;12.88;;;7.82;;
3587;SDS011;1808;53.596;9.972;2023-04-07T04:18:55;11.90;;;7.95;;
3587;SDS011;1808;53.596;9.972;2023-04-07T04:21:22;12.85;;;8.25;;
3587;SDS011;1808;53.596;9.972;2023-04-07T04:23:50;14.20;;;7.90;;
3587;SDS011;1808;53.596;9.972;2023-04-07T04:26:16;10.80;;;7.82;;
3587;SDS011;1808;53.596;9.972;2023-04-07T04:28:43;12.60;;;7.72;;
3587;SDS011;1808;53.596;9.972;2023-04-07T04:31:09;11.73;;;6.88;;
3587;SDS011;1808;53.596;9.972;2023-04-07T04:33:35;12.25;;;7.10;;
3587;SDS011;1808;53.596;9.972;2023-04-07T04:36:01;12.88;;;7.28;;
3587;SDS011;1808;53.596;9.972;2023-04-07T04:38:29;12.93;;;7.95;;
3587;SDS011;1808;53.596;9.972;2023-04-07T04:40:57;11.80;;;7.35;;
3587;SDS011;1808;53.596;9.972;2023-04-07T04:43:23;11.98;;;7.68;;
3587;SDS011;1808;53.596;9.972;2023-04-07T04:45:49;12.30;;;6.95;;
3587;SDS011;1808;53.596;9.972;2023-04-07T04:48:15;11.90;;;7.72;;
3587;SDS011;1808;53.596;9.972;2023-04-07T04:50:41;13.93;;;6.80;;
3587;SDS011;1808;53.596;9.972;2023-04-07T04:53:08;10.05;;;7.18;;
3587;SDS011;1808;53.596;9.972;2023-04-07T04:55:35;11.50;;;7.38;;
3587;SDS011;1808;53.596;9.972;2023-04-07T04:58:01;12.82;;;7.63;;
3587;SDS011;1808;53.596;9.972;2023-04-07T05:00:28;12.90;;;7.82;;
3587;SDS011;1808;53.596;9.972;2023-04-07T05:02:54;15.73;;;7.68;;
3587;SDS011;1808;53.596;9.972;2023-04-07T05:05:20;11.52;;;7.25;;
3587;SDS011;1808;53.596;9.972;2023-04-07T05:07:46;14.00;;;8.45;;
3587;SDS011;1808;53.596;9.972;2023-04-07T05:10:12;13.85;;;7.50;;
3587;SDS011;1808;53.596;9.972;2023-04-07T05:12:41;10.88;;;6.97;;
3587;SDS011;1808;53.596;9.972;2023-04-07T05:15:07;11.57;;;7.88;;
3587;SDS011;1808;53.596;9.972;2023-04-07T05:17:34;11.95;;;6.93;;
3587;SDS011;1808;53.596;9.972;2023-04-07T05:20:00;13.20;;;7.43;;
3587;SDS011;1808;53.596;9.972;2023-04-07T05:22:26;12.88;;;7.20;;
3587;SDS011;1808;53.596;9.972;2023-04-07T05:24:52;11.18;;;6.78;;
3587;SDS011;1808;53.596;9.972;2023-04-07T05:27:19;12.25;;;7.40;;
3587;SDS011;1808;53.596;9.972;2023-04-07T05:29:46;10.73;;;6.70;;
3587;SDS011;1808;53.596;9.972;2023-04-07T05:32:13;12.30;;;6.68;;
3587;SDS011;1808;53.596;9.972;2023-04-07T05:34:39;11.23;;;6.90;;
3587;SDS011;1808;53.596;9.972;2023-04-07T05:37:05;11.00;;;6.57;;
3587;SDS011;1808;53.596;9.972;2023-04-07T05:39:32;11.82;;;7.07;;
3587;SDS011;1808;53.596;9.972;2023-04-07T05:41:58;11.55;;;6.75;;
3587;SDS011;1808;53.596;9.972;2023-04-07T05:44:26;11.80;;;6.90;;
3587;SDS011;1808;53.596;9.972;2023-04-07T05:46:53;12.75;;;6.82;;
3587;SDS011;1808;53.596;9.972;2023-04-07T05:49:20;12.85;;;7.50;;
3587;SDS011;1808;53.596;9.972;2023-04-07T05:51:46;12.13;;;7.68;;
3587;SDS011;1808;53.596;9.972;2023-04-07T05:54:12;11.52;;;7.38;;
3587;SDS011;1808;53.596;9.972;2023-04-07T05:56:38;11.05;;;6.90;;
3587;SDS011;1808;53.596;9.972;2023-04-07T05:59:05;13.95;;;6.75;;
3587;SDS011;1808;53.596;9.972;2023-04-07T06:01:31;12.30;;;6.80;;
3587;SDS011;1808;53.596;9.972;2023-04-07T06:03:59;9.65;;;6.57;;
3587;SDS011;1808;53.596;9.972;2023-04-07T06:06:27;10.93;;;6.70;;
3587;SDS011;1808;53.596;9.972;2023-04-07T06:08:53;10.40;;;6.40;;
3587;SDS011;1808;53.596;9.972;2023-04-07T06:11:19;10.50;;;6.80;;
3587;SDS011;1808;53.596;9.972;2023-04-07T06:13:45;15.32;;;7.90;;
3587;SDS011;1808;53.596;9.972;2023-04-07T06:16:12;15.38;;;7.40;;
3587;SDS011;1808;53.596;9.972;2023-04-07T06:18:38;9.95;;;6.43;;
3587;SDS011;1808;53.596;9.972;2023-04-07T06:21:05;11.90;;;6.82;;
3587;SDS011;1808;53.596;9.972;2023-04-07T06:23:32;13.65;;;7.65;;
3587;SDS011;1808;53.596;9.972;2023-04-07T06:25:58;13.70;;;7.15;;
3587;SDS011;1808;53.596;9.972;2023-04-07T06:28:24;12.73;;;7.38;;
3587;SDS011;1808;53.596;9.972;2023-04-07T06:30:50;11.57;;;7.88;;
3587;SDS011;1808;53.596;9.972;2023-04-07T06:33:16;12.52;;;7.10;;
3587;SDS011;1808;53.596;9.972;2023-04-07T06:35:43;11.80;;;6.72;;
3587;SDS011;1808;53.596;9.972;2023-04-07T06:38:11;13.23;;;6.72;;
3587;SDS011;1808;53.596;9.972;2023-04-07T06:40:37;11.18;;;7.20;;
3587;SDS011;1808;53.596;9.972;2023-04-07T06:43:03;10.55;;;6.60;;
3587;SDS011;1808;53.596;9.972;2023-04-07T06:45:30;11.27;;;6.78;;
3587;SDS011;1808;53.596;9.972;2023-04-07T06:47:56;12.10;;;6.60;;
3587;SDS011;1808;53.596;9.972;2023-04-07T06:50:22;12.00;;;7.82;;
3587;SDS011;1808;53.596;9.972;2023-04-07T06:52:48;12.48;;;7.38;;
3587;SDS011;1808;53.596;9.972;2023-04-07T06:55:16;11.85;;;7.28;;
3587;SDS011;1808;53.596;9.972;2023-04-07T06:57:42;13.55;;;6.88;;
3587;SDS011;1808;53.596;9.972;2023-04-07T07:00:09;18.17;;;7.47;;
3587;SDS011;1808;53.596;9.972;2023-04-07T07:02:35;12.98;;;6.75;;
3587;SDS011;1808;53.596;9.972;2023-04-07T07:05:02;10.02;;;6.18;;
3587;SDS011;1808;53.596;9.972;2023-04-07T07:07:28;13.55;;;7.65;;
3587;SDS011;1808;53.596;9.972;2023-04-07T07:09:55;14.93;;;8.05;;
3587;SDS011;1808;53.596;9.972;2023-04-07T07:12:22;12.60;;;6.95;;
3587;SDS011;1808;53.596;9.972;2023-04-07T07:14:49;13.93;;;7.18;;
3587;SDS011;1808;53.596;9.972;2023-04-07T07:17:15;13.45;;;7.57;;
3587;SDS011;1808;53.596;9.972;2023-04-07T07:19:41;13.45;;;7.03;;
3587;SDS011;1808;53.596;9.972;2023-04-07T07:22:07;15.10;;;7.07;;
3587;SDS011;1808;53.596;9.972;2023-04-07T07:24:33;13.02;;;7.70;;
3587;SDS011;1808;53.596;9.972;2023-04-07T07:27:00;11.23;;;6.82;;
3587;SDS011;1808;53.596;9.972;2023-04-07T07:29:28;11.10;;;7.13;;
3587;SDS011;1808;53.596;9.972;2023-04-07T07:31:54;12.98;;;7.97;;
3587;SDS011;1808;53.596;9.972;2023-04-07T07:34:20;13.02;;;7.32;;
3587;SDS011;1808;53.596;9.972;2023-04-07T07:36:46;12.55;;;6.95;;
3587;SDS011;1808;53.596;9.972;2023-04-07T07:39:13;12.90;;;7.05;;
3587;SDS011;1808;53.596;9.972;2023-04-07T07:41:39;11.73;;;6.70;;
3587;SDS011;1808;53.596;9.972;2023-04-07T07:44:05;13.52;;;6.60;;
3587;SDS011;1808;53.596;9.972;2023-04-07T07:46:33;12.68;;;7.53;;
3587;SDS011;1808;53.596;9.972;2023-04-07T07:48:59;12.30;;;6.85;;
3587;SDS011;1808;53.596;9.972;2023-04-07T07:51:25;10.25;;;6.72;;
3587;SDS011;1808;53.596;9.972;2023-04-07T07:53:52;12.40;;;6.75;;
3587;SDS011;1808;53.596;9.972;2023-04-07T07:56:19;10.43;;;6.88;;
3587;SDS011;1808;53.596;9.972;2023-04-07T07:58:45;9.23;;;6.22;;
3587;SDS011;1808;53.596;9.972;2023-04-07T08:01:11;13.20;;;7.78;;
3587;SDS011;1808;53.596;9.972;2023-04-07T08:03:40;12.25;;;6.43;;
3587;SDS011;1808;53.596;9.972;2023-04-07T08:06:06;13.13;;;7.50;;
3587;SDS011;1808;53.596;9.972;2023-04-07T08:08:33;11.70;;;6.75;;
3587;SDS011;1808;53.596;9.972;2023-04-07T08:10:59;8.98;;;6.10;;
3587;SDS011;1808;53.596;9.972;2023-04-07T08:13:26;10.50;;;6.82;;
3587;SDS011;1808;53.596;9.972;2023-04-07T08:15:52;9.00;;;5.90;;
3587;SDS011;1808;53.596;9.972;2023-04-07T08:18:19;11.38;;;6.38;;
3587;SDS011;1808;53.596;9.972;2023-04-07T08:20:46;11.75;;;7.20;;
3587;SDS011;1808;53.596;9.972;2023-04-07T08:23:13;10.93;;;7.30;;
3587;SDS011;1808;53.596;9.972;2023-04-07T08:25:39;10.10;;;6.22;;
3587;SDS011;1808;53.596;9.972;2023-04-07T08:28:05;12.38;;;6.38;;
3587;SDS011;1808;53.596;9.972;2023-04-07T08:30:32;10.48;;;7.13;;
3587;SDS011;1808;53.596;9.972;2023-04-07T08:32:58;12.05;;;6.65;;
3587;SDS011;1808;53.596;9.972;2023-04-07T08:35:25;14.38;;;6.63;;
3587;SDS011;1808;53.596;9.972;2023-04-07T08:37:52;9.73;;;6.72;;
3587;SDS011;1808;53.596;9.972;2023-04-07T08:40:19;8.02;;;5.53;;
3587;SDS011;1808;53.596;9.972;2023-04-07T08:42:46;10.93;;;6.35;;
3587;SDS011;1808;53.596;9.972;2023-04-07T08:45:13;10.55;;;6.50;;
3587;SDS011;1808;53.596;9.972;2023-04-07T08:47:41;10.20;;;6.57;;
3587;SDS011;1808;53.596;9.972;2023-04-07T08:50:08;10.88;;;6.68;;
3587;SDS011;1808;53.596;9.972;2023-04-07T08:52:37;8.85;;;6.28;;
3587;SDS011;1808;53.596;9.972;2023-04-07T08:55:07;11.65;;;6.25;;
3587;SDS011;1808;53.596;9.972;2023-04-07T08:57:34;9.77;;;5.55;;
3587;SDS011;1808;53.596;9.972;2023-04-07T09:00:02;10.80;;;7.22;;
3587;SDS011;1808;53.596;9.972;2023-04-07T09:02:30;10.35;;;6.20;;
3587;SDS011;1808;53.596;9.972;2023-04-07T09:04:57;9.25;;;6.13;;
3587;SDS011;1808;53.596;9.972;2023-04-07T09:07:24;11.10;;;5.68;;
3587;SDS011;1808;53.596;9.972;2023-04-07T09:09:50;10.30;;;7.25;;
3587;SDS011;1808;53.596;9.972;2023-04-07T09:12:18;14.13;;;6.32;;
3587;SDS011;1808;53.596;9.972;2023-04-07T09:14:44;12.13;;;6.60;;
3587;SDS011;1808;53.596;9.972;2023-04-07T09:17:11;11.73;;;6.70;;
3587;SDS011;1808;53.596;9.972;2023-04-07T09:19:37;11.48;;;7.38;;
3587;SDS011;1808;53.596;9.972;2023-04-07T09:22:04;16.55;;;7.88;;
3587;SDS011;1808;53.596;9.972;2023-04-07T09:24:32;10.68;;;6.63;;
3587;SDS011;1808;53.596;9.972;2023-04-07T09:27:08;9.48;;;6.85;;
3587;SDS011;1808;53.596;9.972;2023-04-07T09:29:36;13.23;;;6.53;;
3587;SDS011;1808;53.596;9.972;2023-04-07T09:32:03;9.82;;;6.25;;
3587;SDS011;1808;53.596;9.972;2023-04-07T09:34:31;9.93;;;6.25;;
3587;SDS011;1808;53.596;9.972;2023-04-07T09:36:58;10.50;;;6.22;;
3587;SDS011;1808;53.596;9.972;2023-04-07T09:39:25;10.05;;;6.40;;
3587;SDS011;1808;53.596;9.972;2023-04-07T09:41:51;10.32;;;6.38;;
3587;SDS011;1808;53.596;9.972;2023-04-07T09:44:18;10.50;;;8.10;;
3587;SDS011;1808;53.596;9.972;2023-04-07T09:46:49;13.68;;;7.93;;
3587;SDS011;1808;53.596;9.972;2023-04-07T09:49:15;10.93;;;8.57;;
3587;SDS011;1808;53.596;9.972;2023-04-07T09:51:51;15.48;;;9.00;;
3587;SDS011;1808;53.596;9.972;2023-04-07T09:54:20;12.30;;;6.95;;
3587;SDS011;1808;53.596;9.972;2023-04-07T09:56:57;14.38;;;7.05;;
3587;SDS011;1808;53.596;9.972;2023-04-07T09:59:23;12.43;;;7.53;;
3587;SDS011;1808;53.596;9.972;2023-04-07T10:01:52;13.10;;;7.60;;
3587;SDS011;1808;53.596;9.972;2023-04-07T10:04:18;16.95;;;8.68;;
3587;SDS011;1808;53.596;9.972;2023-04-07T10:06:44;13.48;;;8.07;;
3587;SDS011;1808;53.596;9.972;2023-04-07T10:09:11;12.93;;;7.68;;
3587;SDS011;1808;53.596;9.972;2023-04-07T10:11:38;10.90;;;6.30;;
3587;SDS011;1808;53.596;9.972;2023-04-07T10:14:05;8.52;;;5.80;;
3587;SDS011;1808;53.596;9.972;2023-04-07T10:16:31;8.63;;;6.22;;
3587;SDS011;1808;53.596;9.972;2023-04-07T10:18:59;9.75;;;5.75;;
3587;SDS011;1808;53.596;9.972;2023-04-07T10:21:25;11.25;;;6.45;;
3587;SDS011;1808;53.596;9.972;2023-04-07T10:23:55;9.55;;;5.95;;
3587;SDS011;1808;53.596;9.972;2023-04-07T10:26:22;8.50;;;5.53;;
3587;SDS011;1808;53.596;9.972;2023-04-07T10:28:51;9.23;;;6.18;;
3587;SDS011;1808;53.596;9.972;2023-04-07T10:31:18;10.95;;;5.22;;
3587;SDS011;1808;53.596;9.972;2023-04-07T10:33:46;11.43;;;6.57;;
3587;SDS011;1808;53.596;9.972;2023-04-07T10:36:22;12.75;;;7.25;;
3587;SDS011;1808;53.596;9.972;2023-04-07T10:41:39;11.93;;;7.25;;
3587;SDS011;1808;53.596;9.972;2023-04-07T10:44:06;10.55;;;6.20;;
3587;SDS011;1808;53.596;9.972;2023-04-07T10:49:26;8.98;;;5.85;;
3587;SDS011;1808;53.596;9.972;2023-04-07T10:54:36;11.38;;;7.60;;
3587;SDS011;1808;53.596;9.972;2023-04-07T10:57:05;10.55;;;7.15;;
3587;SDS011;1808;53.596;9.972;2023-04-07T10:59:34;10.50;;;6.03;;
3587;SDS011;1808;53.596;9.972;2023-04-07T11:04:44;12.55;;;5.85;;
3587;SDS011;1808;53.596;9.972;2023-04-07T11:07:12;8.95;;;5.53;;
3587;SDS011;1808;53.596;9.972;2023-04-07T11:09:40;13.02;;;5.90;;
3587;SDS011;1808;53.596;9.972;2023-04-07T11:12:06;10.90;;;6.88;;
3587;SDS011;1808;53.596;9.972;2023-04-07T11:14:33;14.15;;;7.50;;
3587;SDS011;1808;53.596;9.972;2023-04-07T11:17:01;12.15;;;7.57;;
3587;SDS011;1808;53.596;9.972;2023-04-07T11:19:28;11.38;;;6.53;;
3587;SDS011;1808;53.596;9.972;2023-04-07T11:24:35;10.18;;;7.75;;
3587;SDS011;1808;53.596;9.972;2023-04-07T11:27:04;13.50;;;8.18;;
3587;SDS011;1808;53.596;9.972;2023-04-07T11:29:30;11.00;;;7.47;;
3587;SDS011;1808;53.596;9.972;2023-04-07T11:31:57;11.82;;;6.60;;
3587;SDS011;1808;53.596;9.972;2023-04-07T11:34:28;12.32;;;8.20;;
3587;SDS011;1808;53.596;9.972;2023-04-07T11:36:55;11.80;;;7.78;;
3587;SDS011;1808;53.596;9.972;2023-04-07T11:39:24;12.73;;;7.85;;
3587;SDS011;1808;53.596;9.972;2023-04-07T11:41:52;10.82;;;7.55;;
3587;SDS011;1808;53.596;9.972;2023-04-07T11:44:20;11.32;;;6.35;;
3587;SDS011;1808;53.596;9.972;2023-04-07T11:46:52;9.57;;;6.68;;
3587;SDS011;1808;53.596;9.972;2023-04-07T11:49:19;10.27;;;6.00;;
3587;SDS011;1808;53.596;9.972;2023-04-07T11:51:46;9.52;;;5.38;;
3587;SDS011;1808;53.596;9.972;2023-04-07T11:54:13;10.23;;;5.13;;
3587;SDS011;1808;53.596;9.972;2023-04-07T11:56:40;9.75;;;6.38;;
3587;SDS011;1808;53.596;9.972;2023-04-07T11:59:07;18.90;;;6.60;;
3587;SDS011;1808;53.596;9.972;2023-04-07T12:01:39;10.05;;;5.70;;
3587;SDS011;1808;53.596;9.972;2023-04-07T12:04:05;7.90;;;5.05;;
3587;SDS011;1808;53.596;9.972;2023-04-07T12:06:32;6.82;;;3.90;;
3587;SDS011;1808;53.596;9.972;2023-04-07T12:08:59;9.98;;;5.65;;
3587;SDS011;1808;53.596;9.972;2023-04-07T12:11:25;9.82;;;5.10;;
3587;SDS011;1808;53.596;9.972;2023-04-07T12:13:52;8.57;;;5.80;;
3587;SDS011;1808;53.596;9.972;2023-04-07T12:16:18;9.07;;;4.38;;
3587;SDS011;1808;53.596;9.972;2023-04-07T12:18:46;8.38;;;4.95;;
3587;SDS011;1808;53.596;9.972;2023-04-07T12:21:13;8.27;;;5.20;;
3587;SDS011;1808;53.596;9.972;2023-04-07T12:23:40;8.73;;;4.75;;
3587;SDS011;1808;53.596;9.972;2023-04-07T12:26:07;7.20;;;4.13;;
3587;SDS011;1808;53.596;9.972;2023-04-07T12:28:34;7.93;;;4.57;;
3587;SDS011;1808;53.596;9.972;2023-04-07T12:31:02;8.50;;;4.78;;
3587;SDS011;1808;53.596;9.972;2023-04-07T12:33:28;8.52;;;3.92;;
3587;SDS011;1808;53.596;9.972;2023-04-07T12:35:56;7.50;;;4.20;;
3587;SDS011;1808;53.596;9.972;2023-04-07T12:38:23;7.20;;;4.05;;
3587;SDS011;1808;53.596;9.972;2023-04-07T12:40:49;6.75;;;3.92;;
3587;SDS011;1808;53.596;9.972;2023-04-07T12:43:15;6.72;;;4.43;;
3587;SDS011;1808;53.596;9.972;2023-04-07T12:45:42;5.88;;;4.38;;
3587;SDS011;1808;53.596;9.972;2023-04-07T12:48:08;7.60;;;4.80;;
3587;SDS011;1808;53.596;9.972;2023-04-07T12:50:34;8.80;;;4.30;;
3587;SDS011;1808;53.596;9.972;2023-04-07T12:53:02;6.93;;;4.40;;
3587;SDS011;1808;53.596;9.972;2023-04-07T12:55:29;5.63;;;4.05;;
3587;SDS011;1808;53.596;9.972;2023-04-07T12:57:57;5.72;;;4.15;;
3587;SDS011;1808;53.596;9.972;2023-04-07T13:00:23;8.80;;;4.13;;
3587;SDS011;1808;53.596;9.972;2023-04-07T13:02:50;6.38;;;3.70;;
3587;SDS011;1808;53.596;9.972;2023-04-07T13:05:16;12.10;;;3.72;;
3587;SDS011;1808;53.596;9.972;2023-04-07T13:07:43;6.35;;;3.15;;
3587;SDS011;1808;53.596;9.972;2023-04-07T13:10:12;5.72;;;2.55;;
3587;SDS011;1808;53.596;9.972;2023-04-07T13:12:38;4.63;;;2.72;;
3587;SDS011;1808;53.596;9.972;2023-04-07T13:15:05;8.32;;;3.63;;
3587;SDS011;1808;53.596;9.972;2023-04-07T13:17:32;5.32;;;3.40;;
3587;SDS011;1808;53.596;9.972;2023-04-07T13:20:00;7.20;;;2.92;;
3587;SDS011;1808;53.596;9.972;2023-04-07T13:22:27;4.63;;;2.50;;
3587;SDS011;1808;53.596;9.972;2023-04-07T13:24:53;6.22;;;2.90;;
3587;SDS011;1808;53.596;9.972;2023-04-07T13:27:21;5.00;;;2.45;;
3587;SDS011;1808;53.596;9.972;2023-04-07T13:29:47;4.72;;;2.45;;
3587;SDS011;1808;53.596;9.972;2023-04-07T13:32:14;6.03;;;2.03;;
3587;SDS011;1808;53.596;9.972;2023-04-07T13:34:41;5.75;;;3.15;;
3587;SDS011;1808;53.596;9.972;2023-04-07T13:37:07;4.95;;;2.92;;
3587;SDS011;1808;53.596;9.972;2023-04-07T13:39:34;7.15;;;3.70;;
3587;SDS011;1808;53.596;9.972;2023-04-07T13:42:00;6.43;;;3.90;;
3587;SDS011;1808;53.596;9.972;2023-04-07T13:44:28;6.50;;;2.75;;
3587;SDS011;1808;53.596;9.972;2023-04-07T13:46:55;6.32;;;3.20;;
3587;SDS011;1808;53.596;9.972;2023-04-07T13:49:21;4.75;;;3.05;;
3587;SDS011;1808;53.596;9.972;2023-04-07T13:51:47;7.57;;;3.30;;
3587;SDS011;1808;53.596;9.972;2023-04-07T13:54:14;5.60;;;3.13;;
3587;SDS011;1808;53.596;9.972;2023-04-07T13:56:42;7.18;;;3.80;;
3587;SDS011;1808;53.596;9.972;2023-04-07T13:59:08;8.68;;;3.85;;
3587;SDS011;1808;53.596;9.972;2023-04-07T14:01:36;5.97;;;3.80;;
3587;SDS011;1808;53.596;9.972;2023-04-07T14:04:03;9.10;;;3.67;;
3587;SDS011;1808;53.596;9.972;2023-04-07T14:06:29;7.45;;;4.10;;
3587;SDS011;1808;53.596;9.972;2023-04-07T14:08:56;5.47;;;3.42;;
3587;SDS011;1808;53.596;9.972;2023-04-07T14:11:23;7.30;;;4.28;;
3587;SDS011;1808;53.596;9.972;2023-04-07T14:13:50;6.00;;;3.83;;
3587;SDS011;1808;53.596;9.972;2023-04-07T14:16:16;6.40;;;4.00;;
3587;SDS011;1808;53.596;9.972;2023-04-07T14:18:44;9.40;;;4.70;;
3587;SDS011;1808;53.596;9.972;2023-04-07T14:21:10;7.43;;;4.60;;
3587;SDS011;1808;53.596;9.972;2023-04-07T14:23:37;8.40;;;3.78;;
3587;SDS011;1808;53.596;9.972;2023-04-07T14:26:03;9.23;;;4.97;;
3587;SDS011;1808;53.596;9.972;2023-04-07T14:28:29;7.35;;;4.60;;
3587;SDS011;1808;53.596;9.972;2023-04-07T14:30:56;7.05;;;4.05;;
3587;SDS011;1808;53.596;9.972;2023-04-07T14:33:22;6.72;;;4.10;;
3587;SDS011;1808;53.596;9.972;2023-04-07T14:35:50;11.02;;;4.35;;
3587;SDS011;1808;53.596;9.972;2023-04-07T14:38:16;10.40;;;4.82;;
3587;SDS011;1808;53.596;9.972;2023-04-07T14:40:43;7.97;;;5.18;;
3587;SDS011;1808;53.596;9.972;2023-04-07T14:43:10;9.20;;;3.65;;
3587;SDS011;1808;53.596;9.972;2023-04-07T14:45:36;8.55;;;4.78;;
3587;SDS011;1808;53.596;9.972;2023-04-07T14:48:03;9.70;;;5.40;;
3587;SDS011;1808;53.596;9.972;2023-04-07T14:50:30;7.63;;;4.43;;
3587;SDS011;1808;53.596;9.972;2023-04-07T14:52:58;17.50;;;5.60;;
3587;SDS011;1808;53.596;9.972;2023-04-07T14:55:25;10.35;;;5.22;;
3587;SDS011;1808;53.596;9.972;2023-04-07T14:57:51;10.88;;;5.22;;
3587;SDS011;1808;53.596;9.972;2023-04-07T15:00:17;9.10;;;4.75;;
3587;SDS011;1808;53.596;9.972;2023-04-07T15:02:44;8.32;;;4.05;;
3587;SDS011;1808;53.596;9.972;2023-04-07T15:05:10;9.85;;;5.85;;
3587;SDS011;1808;53.596;9.972;2023-04-07T15:07:36;9.55;;;5.15;;
3587;SDS011;1808;53.596;9.972;2023-04-07T15:10:04;8.98;;;5.20;;
3587;SDS011;1808;53.596;9.972;2023-04-07T15:12:31;8.30;;;5.50;;
3587;SDS011;1808;53.596;9.972;2023-04-07T15:14:57;7.45;;;4.57;;